Time;durP1;ratioP1;P1;durP2;ratioP2;P2;SDS_P1;SDS_P2;PMS_P1;PMS_P2;Temp;Humidity;BMP_temperature;BMP_pressure;BME280_temperature;BME280_humidity;BME280_pressure;Samples;Min_cycle;Max_cycle;Signal;HPM_P1;HPM_P2
2022/09/19 00:01:13;;;;;;;;;;;9.70;99.90;;;;;;5076799;28;20395;-72
2022/09/19 00:03:46;;;;;;;;;;;9.70;99.90;;;;;;5060093;28;19924;-72
2022/09/19 00:06:18;;;;;;;;;;;9.60;99.90;;;;;;5074238;28;19928;-72
2022/09/19 00:08:50;;;;;;;;;;;9.60;99.90;;;;;;5074330;28;20437;-72
2022/09/19 00:11:22;;;;;;;;;;;9.60;99.90;;;;;;5064822;28;19924;-72
2022/09/19 00:13:54;;;;;;;;;;;9.60;99.90;;;;;;5079954;28;19985;-72
2022/09/19 00:16:23;;;;;;;;;;;9.60;99.90;;;;;;5076857;28;19925;-72
2022/09/19 00:18:51;;;;;;;;;;;9.50;99.90;;;;;;5046495;28;20470;-72
2022/09/19 00:21:18;;;;;;;;;;;9.50;99.90;;;;;;5068505;28;19961;-73
2022/09/19 00:26:41;;;;;;;;;;;9.40;99.90;;;;;;5086171;28;19981;-72
2022/09/19 00:29:14;;;;;;;;;;;9.50;99.90;;;;;;5060597;28;20011;-72
2022/09/19 00:31:43;;;;;;;;;;;9.40;99.90;;;;;;5065257;28;19928;-72
2022/09/19 00:34:15;;;;;;;;;;;9.40;99.90;;;;;;5057084;28;19931;-72
2022/09/19 00:36:47;;;;;;;;;;;9.40;99.90;;;;;;5061402;28;19982;-72
2022/09/19 00:39:19;;;;;;;;;;;9.40;99.90;;;;;;5049481;28;19927;-72
2022/09/19 00:41:51;;;;;;;;;;;9.40;99.90;;;;;;5060463;28;19985;-72
2022/09/19 00:44:24;;;;;;;;;;;9.40;99.90;;;;;;5060993;28;19928;-72
2022/09/19 00:46:59;;;;;;;;;;;9.30;99.90;;;;;;5068297;28;20003;-72
2022/09/19 00:49:27;;;;;;;;;;;9.30;99.90;;;;;;5045322;28;19924;-72
2022/09/19 00:52:00;;;;;;;;;;;9.30;99.90;;;;;;5057898;28;19924;-72
2022/09/19 00:54:34;;;;;;;;;;;9.20;99.90;;;;;;5067506;28;19935;-72
2022/09/19 00:57:07;;;;;;;;;;;9.20;99.90;;;;;;5066957;28;20455;-71
2022/09/19 00:59:40;;;;;;;;;;;9.00;99.90;;;;;;5067039;28;19928;-72
2022/09/19 01:02:12;;;;;;;;;;;9.00;99.90;;;;;;5082208;28;19928;-72
2022/09/19 01:04:44;;;;;;;;;;;8.90;99.90;;;;;;5083593;28;19924;-72
2022/09/19 01:07:35;;;;;;;;;;;8.90;99.90;;;;;;5062880;28;19932;-72
2022/09/19 01:10:07;;;;;;;;;;;8.90;99.90;;;;;;5065279;28;19932;-72
2022/09/19 01:12:48;;;;;;;;;;;8.80;99.90;;;;;;5083405;28;19946;-72
2022/09/19 01:15:28;;;;;;;;;;;8.80;99.90;;;;;;5058334;28;19928;-72
2022/09/19 01:18:01;;;;;;;;;;;8.70;99.90;;;;;;5061714;28;19925;-72
2022/09/19 01:20:28;;;;;;;;;;;8.70;99.90;;;;;;5072184;28;19932;-72
2022/09/19 01:23:05;;;;;;;;;;;8.70;99.90;;;;;;5062275;28;19925;-72
2022/09/19 01:25:49;;;;;;;;;;;8.60;99.90;;;;;;5069280;28;19924;-72
2022/09/19 01:28:21;;;;;;;;;;;8.60;99.90;;;;;;5069188;28;19928;-72
2022/09/19 01:31:19;;;;;;;;;;;8.60;99.90;;;;;;5067754;28;20442;-72
2022/09/19 01:33:52;;;;;;;;;;;8.60;99.90;;;;;;5079921;28;19996;-72
2022/09/19 01:36:32;;;;;;;;;;;8.60;99.90;;;;;;5064356;28;19978;-72
2022/09/19 01:39:04;;;;;;;;;;;8.50;99.90;;;;;;5064584;28;19977;-73
2022/09/19 01:41:48;;;;;;;;;;;8.50;99.90;;;;;;5068441;28;20317;-72
2022/09/19 01:44:22;;;;;;;;;;;8.50;99.90;;;;;;5061700;28;19928;-72
2022/09/19 01:47:10;;;;;;;;;;;8.40;99.90;;;;;;5052403;28;19929;-72
2022/09/19 01:49:44;;;;;;;;;;;8.50;99.90;;;;;;5055706;28;20401;-72
2022/09/19 01:52:30;;;;;;;;;;;8.40;99.90;;;;;;5062890;28;19924;-72
2022/09/19 01:55:20;;;;;;;;;;;8.40;99.90;;;;;;5063203;28;19925;-72
2022/09/19 01:58:12;;;;;;;;;;;8.40;99.90;;;;;;5061782;28;19927;-72
2022/09/19 02:00:49;;;;;;;;;;;8.30;99.90;;;;;;5064847;28;20348;-72
2022/09/19 02:03:22;;;;;;;;;;;8.30;99.90;;;;;;5060987;28;19986;-72
2022/09/19 02:06:02;;;;;;;;;;;8.20;99.90;;;;;;5063945;28;19925;-72
2022/09/19 02:08:43;;;;;;;;;;;8.10;99.90;;;;;;5084443;28;20011;-72
2022/09/19 02:11:24;;;;;;;;;;;8.10;99.90;;;;;;5063961;28;19930;-72
2022/09/19 02:14:00;;;;;;;;;;;8.10;99.90;;;;;;5063504;28;19967;-72
2022/09/19 02:16:39;;;;;;;;;;;8.00;99.90;;;;;;5067730;28;19958;-72
2022/09/19 02:19:12;;;;;;;;;;;8.00;99.90;;;;;;5083321;28;19977;-72
2022/09/19 02:21:52;;;;;;;;;;;7.90;99.90;;;;;;5068216;28;19932;-72
2022/09/19 02:24:27;;;;;;;;;;;7.90;99.90;;;;;;5058795;28;19978;-72
2022/09/19 02:27:03;;;;;;;;;;;7.80;99.90;;;;;;5073876;28;19932;-72
2022/09/19 02:29:44;;;;;;;;;;;7.80;99.90;;;;;;5069300;28;20596;-72
2022/09/19 02:32:19;;;;;;;;;;;7.70;99.90;;;;;;5031312;28;19928;-72
2022/09/19 02:34:49;;;;;;;;;;;7.60;99.90;;;;;;5069477;28;20019;-72
2022/09/19 02:37:23;;;;;;;;;;;7.60;99.90;;;;;;5080172;28;20344;-72
2022/09/19 02:40:04;;;;;;;;;;;7.60;99.90;;;;;;5052451;28;19931;-72
2022/09/19 02:42:52;;;;;;;;;;;7.50;99.90;;;;;;5074281;28;19924;-72
2022/09/19 02:45:25;;;;;;;;;;;7.50;99.90;;;;;;5056106;28;19924;-72
2022/09/19 02:48:04;;;;;;;;;;;7.50;99.90;;;;;;5084164;28;20019;-72
2022/09/19 02:50:41;;;;;;;;;;;7.50;99.90;;;;;;5061269;28;20375;-72
2022/09/19 02:53:16;;;;;;;;;;;7.40;99.90;;;;;;5058570;28;19928;-72
2022/09/19 02:55:50;;;;;;;;;;;7.40;99.90;;;;;;5064635;28;19924;-72
2022/09/19 02:58:25;;;;;;;;;;;7.40;99.90;;;;;;5068704;28;20363;-72
2022/09/19 03:01:07;;;;;;;;;;;7.30;99.90;;;;;;5069276;28;19928;-72
2022/09/19 03:06:59;;;;;;;;;;;7.30;99.90;;;;;;5064553;28;19970;-72
2022/09/19 03:09:31;;;;;;;;;;;7.20;99.90;;;;;;5067110;28;19931;-72
2022/09/19 03:12:14;;;;;;;;;;;7.20;99.90;;;;;;5059785;28;20733;-72
2022/09/19 03:14:48;;;;;;;;;;;7.20;99.90;;;;;;5061821;28;19928;-72
2022/09/19 03:17:20;;;;;;;;;;;7.20;99.90;;;;;;5062186;28;19929;-72
2022/09/19 03:19:52;;;;;;;;;;;7.10;99.90;;;;;;5061368;28;19933;-72
2022/09/19 03:22:26;;;;;;;;;;;7.00;99.90;;;;;;5064734;28;19929;-72
2022/09/19 03:25:02;;;;;;;;;;;7.00;99.90;;;;;;5063874;28;19953;-71
2022/09/19 03:27:37;;;;;;;;;;;7.00;99.90;;;;;;5068491;28;19960;-72
2022/09/19 03:30:11;;;;;;;;;;;7.00;99.90;;;;;;5059988;28;20520;-72
2022/09/19 03:32:43;;;;;;;;;;;7.00;99.90;;;;;;5062411;28;19924;-72
2022/09/19 03:35:15;;;;;;;;;;;6.90;99.90;;;;;;5067398;28;20657;-72
2022/09/19 03:37:47;;;;;;;;;;;6.90;99.90;;;;;;5070917;28;20028;-72
2022/09/19 03:40:22;;;;;;;;;;;6.90;99.90;;;;;;5072383;28;19931;-72
2022/09/19 03:42:52;;;;;;;;;;;6.90;99.90;;;;;;5037695;28;20022;-72
2022/09/19 03:45:21;;;;;;;;;;;6.90;99.90;;;;;;5064839;28;19950;-72
2022/09/19 03:47:53;;;;;;;;;;;6.80;99.90;;;;;;5041479;28;20375;-72
2022/09/19 03:50:26;;;;;;;;;;;6.80;99.90;;;;;;5069353;28;20308;-72
2022/09/19 03:53:06;;;;;;;;;;;6.80;99.90;;;;;;5062687;28;19928;-72
2022/09/19 03:55:40;;;;;;;;;;;6.80;99.90;;;;;;5063824;28;19924;-72
2022/09/19 03:58:16;;;;;;;;;;;6.70;99.90;;;;;;5067738;28;20004;-72
2022/09/19 04:00:48;;;;;;;;;;;6.70;99.90;;;;;;5081115;28;19928;-72
2022/09/19 04:03:23;;;;;;;;;;;6.70;99.90;;;;;;5062857;28;20412;-72
2022/09/19 04:05:55;;;;;;;;;;;6.60;99.90;;;;;;5069653;28;19931;-72
2022/09/19 04:08:27;;;;;;;;;;;6.60;99.90;;;;;;5084343;28;19931;-72
2022/09/19 04:10:59;;;;;;;;;;;6.70;99.90;;;;;;5041826;28;19924;-72
2022/09/19 04:13:33;;;;;;;;;;;6.60;99.90;;;;;;5057504;28;19959;-73
2022/09/19 04:16:06;;;;;;;;;;;6.70;99.90;;;;;;5058030;28;19986;-73
2022/09/19 04:18:41;;;;;;;;;;;6.70;99.90;;;;;;5066293;28;20384;-72
2022/09/19 04:21:20;;;;;;;;;;;6.60;99.90;;;;;;5048818;28;19924;-72
2022/09/19 04:24:10;;;;;;;;;;;6.70;99.90;;;;;;5057872;28;19985;-72
2022/09/19 04:26:59;;;;;;;;;;;6.70;99.90;;;;;;5050826;28;19931;-72
2022/09/19 04:29:31;;;;;;;;;;;6.70;99.90;;;;;;5066833;28;19928;-73
2022/09/19 04:32:03;;;;;;;;;;;6.70;99.90;;;;;;5063935;28;19932;-73
2022/09/19 04:34:35;;;;;;;;;;;6.70;99.90;;;;;;5063944;28;19967;-72
2022/09/19 04:37:09;;;;;;;;;;;6.70;99.90;;;;;;5064886;28;20357;-73
2022/09/19 04:39:42;;;;;;;;;;;6.70;99.90;;;;;;5064159;28;19974;-73
2022/09/19 04:42:15;;;;;;;;;;;6.80;99.90;;;;;;5082476;28;20409;-74
2022/09/19 04:44:47;;;;;;;;;;;6.80;99.90;;;;;;5063393;28;19929;-71
2022/09/19 04:47:37;;;;;;;;;;;6.80;99.90;;;;;;5064502;28;19932;-73
2022/09/19 04:50:09;;;;;;;;;;;6.80;99.90;;;;;;5065674;28;20311;-73
2022/09/19 04:52:56;;;;;;;;;;;6.80;99.90;;;;;;5059281;28;19924;-73
2022/09/19 04:55:27;;;;;;;;;;;6.80;99.90;;;;;;5056021;28;20268;-73
2022/09/19 04:57:55;;;;;;;;;;;6.80;99.90;;;;;;5067356;28;20433;-73
2022/09/19 05:00:41;;;;;;;;;;;6.80;99.90;;;;;;5050361;28;19925;-73
2022/09/19 05:03:13;;;;;;;;;;;6.80;99.90;;;;;;5057116;28;19979;-73
2022/09/19 05:05:50;;;;;;;;;;;6.80;99.90;;;;;;5064061;28;20286;-73
2022/09/19 05:08:28;;;;;;;;;;;6.80;99.90;;;;;;5061098;28;20282;-72
2022/09/19 05:11:09;;;;;;;;;;;6.90;99.90;;;;;;5082810;28;20378;-73
2022/09/19 05:13:40;;;;;;;;;;;6.90;99.90;;;;;;5074282;28;19928;-73
2022/09/19 05:16:15;;;;;;;;;;;6.90;99.90;;;;;;5059899;28;19947;-72
2022/09/19 05:19:02;;;;;;;;;;;6.90;99.90;;;;;;5056476;28;19928;-73
2022/09/19 05:21:34;;;;;;;;;;;6.90;99.90;;;;;;5062170;28;19960;-72
2022/09/19 05:24:07;;;;;;;;;;;6.90;99.90;;;;;;5057554;28;20377;-72
2022/09/19 05:26:40;;;;;;;;;;;6.90;99.90;;;;;;5062512;28;19928;-72
2022/09/19 05:29:13;;;;;;;;;;;6.90;99.90;;;;;;5068025;28;19948;-72
2022/09/19 05:31:54;;;;;;;;;;;6.90;99.90;;;;;;5062558;28;19935;-74
2022/09/19 05:34:36;;;;;;;;;;;7.00;99.90;;;;;;5065339;28;19924;-72
2022/09/19 05:37:34;;;;;;;;;;;7.00;99.90;;;;;;5065945;28;19951;-72
2022/09/19 05:40:15;;;;;;;;;;;7.10;99.90;;;;;;5079064;28;19931;-72
2022/09/19 05:43:02;;;;;;;;;;;7.20;99.90;;;;;;5046768;28;19955;-72
2022/09/19 05:45:34;;;;;;;;;;;7.20;99.90;;;;;;5059541;28;20010;-72
2022/09/19 05:48:06;;;;;;;;;;;7.20;99.90;;;;;;5059076;28;19925;-72
2022/09/19 05:50:37;;;;;;;;;;;7.20;99.90;;;;;;5074240;28;20015;-72
2022/09/19 05:56:12;;;;;;;;;;;7.20;99.90;;;;;;5065180;28;19924;-71
2022/09/19 05:58:55;;;;;;;;;;;7.20;99.90;;;;;;5072122;28;19951;-72
2022/09/19 06:01:28;;;;;;;;;;;7.20;99.90;;;;;;5053842;28;19936;-72
2022/09/19 06:03:57;;;;;;;;;;;7.20;99.90;;;;;;5064854;28;20282;-72
2022/09/19 06:06:31;;;;;;;;;;;7.30;99.90;;;;;;5062612;28;19955;-72
2022/09/19 06:09:04;;;;;;;;;;;7.30;99.90;;;;;;5067089;28;20023;-72
2022/09/19 06:11:40;;;;;;;;;;;7.40;99.90;;;;;;5068488;28;19924;-72
2022/09/19 06:14:15;;;;;;;;;;;7.40;99.90;;;;;;5063112;28;19925;-74
2022/09/19 06:16:49;;;;;;;;;;;7.40;99.90;;;;;;5052373;28;19924;-71
2022/09/19 06:19:27;;;;;;;;;;;7.40;99.90;;;;;;5083802;28;19932;-72
2022/09/19 06:22:14;;;;;;;;;;;7.40;99.90;;;;;;5059089;28;20015;-72
2022/09/19 06:24:49;;;;;;;;;;;7.50;99.90;;;;;;5055582;28;19982;-72
2022/09/19 06:27:16;;;;;;;;;;;7.50;99.90;;;;;;5069036;28;19928;-72
2022/09/19 06:29:48;;;;;;;;;;;7.60;99.90;;;;;;5082605;28;19932;-72
2022/09/19 06:32:38;;;;;;;;;;;7.60;99.90;;;;;;5063120;28;20379;-72
2022/09/19 06:35:17;;;;;;;;;;;7.60;99.90;;;;;;5084721;28;20022;-72
2022/09/19 06:37:49;;;;;;;;;;;7.60;99.90;;;;;;5074420;28;19925;-73
2022/09/19 06:40:22;;;;;;;;;;;7.60;99.90;;;;;;5052975;28;19933;-73
2022/09/19 06:43:13;;;;;;;;;;;7.60;99.90;;;;;;5080443;28;19936;-74
2022/09/19 06:45:52;;;;;;;;;;;7.60;99.90;;;;;;5077055;28;19977;-73
2022/09/19 06:48:56;;;;;;;;;;;7.60;99.90;;;;;;5071791;28;19924;-75
2022/09/19 06:51:41;;;;;;;;;;;7.60;99.90;;;;;;5077864;28;19933;-72
2022/09/19 06:54:13;;;;;;;;;;;7.60;99.90;;;;;;5060556;28;19924;-73
2022/09/19 06:56:45;;;;;;;;;;;7.60;99.90;;;;;;5068393;28;20291;-72
2022/09/19 06:59:19;;;;;;;;;;;7.60;99.90;;;;;;5073304;28;19928;-72
2022/09/19 07:01:51;;;;;;;;;;;7.60;99.90;;;;;;5073674;28;19924;-73
2022/09/19 07:04:23;;;;;;;;;;;7.60;99.90;;;;;;5058914;28;19924;-73
2022/09/19 07:07:06;;;;;;;;;;;7.70;99.90;;;;;;5069497;28;19924;-73
2022/09/19 07:09:45;;;;;;;;;;;7.80;99.90;;;;;;5068444;28;19924;-72
2022/09/19 07:12:12;;;;;;;;;;;7.80;99.90;;;;;;5070141;28;22767;-73
2022/09/19 07:14:45;;;;;;;;;;;7.90;99.90;;;;;;5049117;28;19925;-72
2022/09/19 07:17:17;;;;;;;;;;;7.90;99.90;;;;;;5069524;28;19928;-71
2022/09/19 07:19:53;;;;;;;;;;;7.90;99.90;;;;;;5068941;28;19928;-72
2022/09/19 07:22:35;;;;;;;;;;;8.00;99.90;;;;;;5085033;28;19982;-72
2022/09/19 07:25:28;;;;;;;;;;;8.00;99.90;;;;;;5056304;28;19924;-72
2022/09/19 07:28:02;;;;;;;;;;;8.10;99.90;;;;;;5064781;28;19977;-73
2022/09/19 07:30:35;;;;;;;;;;;8.10;99.90;;;;;;5060009;28;20482;-73
2022/09/19 07:33:08;;;;;;;;;;;8.10;99.90;;;;;;5062493;28;20678;-72
2022/09/19 07:35:43;;;;;;;;;;;8.10;99.90;;;;;;5066135;28;20346;-72
2022/09/19 07:38:17;;;;;;;;;;;8.10;99.90;;;;;;5065894;28;19925;-72
2022/09/19 07:41:05;;;;;;;;;;;8.20;99.90;;;;;;5073668;28;19924;-72
2022/09/19 07:43:55;;;;;;;;;;;8.20;99.90;;;;;;5075739;28;19935;-73
2022/09/19 07:47:26;;;;;;;;;;;8.30;99.90;;;;;;5064921;28;19948;-74
2022/09/19 07:49:54;;;;;;;;;;;8.40;99.90;;;;;;5089747;28;19924;-73
2022/09/19 07:52:36;;;;;;;;;;;8.50;99.90;;;;;;5066613;28;20319;-72
2022/09/19 07:55:11;;;;;;;;;;;8.50;99.90;;;;;;5077853;28;19931;-72
2022/09/19 07:57:50;;;;;;;;;;;8.50;99.90;;;;;;5042276;28;19932;-72
2022/09/19 08:00:34;;;;;;;;;;;8.60;99.90;;;;;;5086359;28;20019;-72
2022/09/19 08:03:02;;;;;;;;;;;8.60;99.90;;;;;;5063345;28;19970;-72
2022/09/19 08:05:37;;;;;;;;;;;8.60;99.90;;;;;;5089527;28;19924;-73
2022/09/19 08:08:10;;;;;;;;;;;8.70;99.90;;;;;;5061580;28;19959;-76
2022/09/19 08:10:43;;;;;;;;;;;8.70;99.90;;;;;;5044158;28;20350;-73
2022/09/19 08:13:17;;;;;;;;;;;8.70;99.90;;;;;;5058869;28;19977;-72
2022/09/19 08:15:50;;;;;;;;;;;8.80;99.90;;;;;;5073472;28;19924;-72
2022/09/19 08:18:23;;;;;;;;;;;8.80;99.90;;;;;;5051840;28;19947;-72
2022/09/19 08:20:55;;;;;;;;;;;8.80;99.90;;;;;;5061143;28;20468;-73
2022/09/19 08:23:21;;;;;;;;;;;8.80;99.90;;;;;;5065077;28;19936;-72
2022/09/19 08:25:55;;;;;;;;;;;8.80;99.90;;;;;;5053242;28;19928;-72
2022/09/19 08:28:28;;;;;;;;;;;8.90;99.90;;;;;;5071991;28;20286;-72
2022/09/19 08:31:01;;;;;;;;;;;8.90;99.90;;;;;;5069323;28;20401;-72
2022/09/19 08:33:38;;;;;;;;;;;8.90;99.90;;;;;;5064824;28;19928;-72
2022/09/19 08:36:12;;;;;;;;;;;9.00;99.90;;;;;;5071863;28;20260;-72
2022/09/19 08:38:46;;;;;;;;;;;8.90;99.90;;;;;;5071457;28;19934;-73
2022/09/19 08:41:38;;;;;;;;;;;8.90;99.90;;;;;;5056801;28;20043;-72
2022/09/19 08:44:14;;;;;;;;;;;9.00;99.90;;;;;;5063246;28;20308;-72
2022/09/19 08:47:04;;;;;;;;;;;9.00;99.90;;;;;;5070320;28;19931;-72
2022/09/19 08:49:38;;;;;;;;;;;9.00;99.90;;;;;;5062466;28;19935;-72
2022/09/19 08:52:28;;;;;;;;;;;9.10;99.90;;;;;;5050266;28;19932;-72
2022/09/19 08:54:57;;;;;;;;;;;9.20;99.90;;;;;;5031444;28;20396;-72
2022/09/19 08:57:36;;;;;;;;;;;9.30;99.90;;;;;;5070045;28;20027;-73
2022/09/19 09:00:15;;;;;;;;;;;9.40;99.90;;;;;;5043769;28;19978;-72
2022/09/19 09:03:00;;;;;;;;;;;9.50;99.90;;;;;;5053092;28;19925;-72
2022/09/19 09:05:53;;;;;;;;;;;9.50;99.90;;;;;;5069784;28;20461;-72
2022/09/19 09:08:45;;;;;;;;;;;9.60;99.90;;;;;;5044260;28;19928;-72
2022/09/19 09:11:49;;;;;;;;;;;9.60;99.90;;;;;;5050905;28;19932;-72
2022/09/19 09:14:40;;;;;;;;;;;9.70;99.90;;;;;;5049858;28;20457;-72
2022/09/19 09:17:31;;;;;;;;;;;9.70;99.90;;;;;;5050657;28;20034;-72
2022/09/19 09:20:36;;;;;;;;;;;9.80;99.90;;;;;;5065225;28;20031;-72
2022/09/19 09:23:15;;;;;;;;;;;9.80;99.90;;;;;;5018165;28;20019;-72
2022/09/19 09:26:13;;;;;;;;;;;9.90;99.90;;;;;;5061829;28;19967;-72
2022/09/19 09:29:01;;;;;;;;;;;9.90;99.90;;;;;;5090224;28;19948;-72
2022/09/19 09:31:58;;;;;;;;;;;9.80;99.90;;;;;;5057590;28;20019;-74
2022/09/19 09:35:03;;;;;;;;;;;9.90;99.90;;;;;;5071058;28;20407;-72
2022/09/19 09:37:30;;;;;;;;;;;9.90;99.90;;;;;;5038448;28;19924;-72
2022/09/19 09:41:45;;;;;;;;;;;10.00;99.90;;;;;;5091328;28;20018;-72
2022/09/19 09:43:14;;;;;;;;;;;10.00;99.90;;;;;;5068228;28;19955;-72
2022/09/19 09:45:50;;;;;;;;;;;10.00;99.90;;;;;;5074257;28;19924;-72
2022/09/19 09:48:34;;;;;;;;;;;10.10;99.90;;;;;;5051609;28;20431;-72
2022/09/19 09:51:25;;;;;;;;;;;10.30;99.90;;;;;;5071869;28;19924;-72
2022/09/19 09:54:06;;;;;;;;;;;10.30;99.90;;;;;;5057479;28;19933;-72
2022/09/19 09:56:41;;;;;;;;;;;10.40;99.90;;;;;;5068345;28;19968;-72
2022/09/19 10:05:25;;;;;;;;;;;10.60;99.90;;;;;;5046479;28;19928;-73
2022/09/19 10:08:01;;;;;;;;;;;10.80;99.90;;;;;;5074921;28;19924;-72
2022/09/19 10:10:33;;;;;;;;;;;10.80;99.90;;;;;;5074728;28;19924;-72
2022/09/19 10:13:08;;;;;;;;;;;10.90;99.90;;;;;;5049570;28;19924;-71
2022/09/19 10:15:43;;;;;;;;;;;10.90;99.90;;;;;;5072834;28;19924;-72
2022/09/19 10:18:20;;;;;;;;;;;10.90;99.90;;;;;;5074949;28;19924;-72
2022/09/19 10:20:58;;;;;;;;;;;10.90;99.90;;;;;;5075338;28;19924;-72
2022/09/19 10:23:34;;;;;;;;;;;10.90;99.90;;;;;;5064566;28;19932;-72
2022/09/19 10:26:19;;;;;;;;;;;11.10;99.90;;;;;;5071449;28;20023;-73
2022/09/19 10:28:54;;;;;;;;;;;11.10;99.90;;;;;;5053550;28;19925;-73
2022/09/19 10:31:39;;;;;;;;;;;11.10;99.90;;;;;;5084219;28;19946;-73
2022/09/19 10:34:27;;;;;;;;;;;11.20;99.90;;;;;;5076528;28;19971;-73
2022/09/19 10:37:02;;;;;;;;;;;11.40;99.90;;;;;;5072520;28;20016;-71
2022/09/19 10:39:42;;;;;;;;;;;11.60;99.90;;;;;;5069808;28;20310;-73
2022/09/19 10:42:36;;;;;;;;;;;11.70;99.90;;;;;;5065596;28;19932;-71
2022/09/19 10:45:25;;;;;;;;;;;11.80;99.90;;;;;;5066126;28;19956;-73
2022/09/19 10:48:09;;;;;;;;;;;12.00;99.90;;;;;;5055057;28;19924;-72
2022/09/19 10:50:42;;;;;;;;;;;12.30;99.90;;;;;;5057163;28;19924;-72
2022/09/19 10:53:22;;;;;;;;;;;12.40;99.90;;;;;;5052550;28;19929;-73
2022/09/19 10:55:59;;;;;;;;;;;12.60;99.90;;;;;;5055964;28;19925;-72
2022/09/19 10:58:35;;;;;;;;;;;12.80;99.90;;;;;;5036461;28;20079;-72
2022/09/19 11:01:33;;;;;;;;;;;12.80;99.90;;;;;;5043726;28;20395;-72
2022/09/19 11:04:22;;;;;;;;;;;12.90;99.90;;;;;;5051873;28;19936;-72
2022/09/19 11:07:02;;;;;;;;;;;12.90;99.90;;;;;;5035815;28;19925;-72
2022/09/19 11:09:35;;;;;;;;;;;13.10;99.90;;;;;;5051645;28;19925;-72
2022/09/19 11:12:09;;;;;;;;;;;13.20;99.90;;;;;;5058419;28;19967;-72
2022/09/19 11:14:40;;;;;;;;;;;13.10;99.90;;;;;;5049521;28;19932;-73
2022/09/19 11:17:31;;;;;;;;;;;12.90;99.90;;;;;;5055327;28;20276;-73
2022/09/19 11:20:17;;;;;;;;;;;12.60;99.90;;;;;;5053906;28;19931;-72
2022/09/19 11:23:20;;;;;;;;;;;12.50;99.90;;;;;;5057384;28;19928;-72
2022/09/19 11:26:12;;;;;;;;;;;12.70;99.90;;;;;;5063935;28;20029;-72
2022/09/19 11:28:49;;;;;;;;;;;12.90;99.90;;;;;;5032156;28;19925;-72
2022/09/19 11:31:26;;;;;;;;;;;12.80;99.90;;;;;;5039187;28;20342;-72
2022/09/19 11:33:56;;;;;;;;;;;12.70;99.90;;;;;;5066009;28;19931;-72
2022/09/19 11:36:38;;;;;;;;;;;12.70;99.90;;;;;;5039035;28;19998;-72
2022/09/19 11:39:35;;;;;;;;;;;12.60;99.90;;;;;;5044596;28;19983;-72
2022/09/19 11:42:14;;;;;;;;;;;12.70;99.90;;;;;;5005195;28;20647;-72
2022/09/19 11:44:49;;;;;;;;;;;12.60;99.90;;;;;;5049795;28;19925;-72
2022/09/19 11:47:33;;;;;;;;;;;12.70;99.90;;;;;;5057042;28;20350;-72
2022/09/19 11:50:08;;;;;;;;;;;12.60;99.90;;;;;;5041055;28;19928;-72
2022/09/19 11:52:41;;;;;;;;;;;12.70;99.90;;;;;;5052787;28;20007;-72
2022/09/19 11:55:13;;;;;;;;;;;12.60;99.90;;;;;;5054974;28;20471;-72
2022/09/19 11:57:45;;;;;;;;;;;12.50;99.90;;;;;;5078479;28;19929;-72
2022/09/19 12:00:21;;;;;;;;;;;12.50;99.90;;;;;;5059121;28;19924;-72
2022/09/19 12:03:22;;;;;;;;;;;12.60;99.90;;;;;;5054237;28;19924;-72
2022/09/19 12:06:24;;;;;;;;;;;12.60;99.90;;;;;;5045407;28;19947;-72
2022/09/19 12:09:10;;;;;;;;;;;12.60;99.90;;;;;;5067109;28;19983;-72
2022/09/19 12:11:50;;;;;;;;;;;12.60;99.90;;;;;;5056883;28;20015;-73
2022/09/19 12:14:24;;;;;;;;;;;12.60;99.90;;;;;;5069216;28;19925;-72
2022/09/19 12:16:58;;;;;;;;;;;12.60;99.90;;;;;;5048302;28;19931;-72
2022/09/19 12:19:35;;;;;;;;;;;12.60;99.90;;;;;;5063343;28;19924;-72
2022/09/19 12:22:19;;;;;;;;;;;12.60;99.90;;;;;;5052764;28;19928;-72
2022/09/19 12:24:55;;;;;;;;;;;12.50;99.90;;;;;;5054332;28;20292;-72
2022/09/19 12:27:29;;;;;;;;;;;12.50;99.90;;;;;;5053166;28;19925;-73
2022/09/19 12:30:05;;;;;;;;;;;12.50;99.90;;;;;;5065304;28;19925;-72
2022/09/19 12:32:40;;;;;;;;;;;12.60;99.90;;;;;;5049197;28;19931;-72
2022/09/19 12:35:31;;;;;;;;;;;12.50;99.90;;;;;;5057573;28;19928;-72
2022/09/19 12:38:12;;;;;;;;;;;12.50;99.90;;;;;;5068403;28;19931;-72
2022/09/19 12:40:49;;;;;;;;;;;12.60;99.90;;;;;;5077677;28;20343;-72
2022/09/19 12:43:32;;;;;;;;;;;12.50;99.90;;;;;;5052938;28;20012;-72
2022/09/19 12:46:09;;;;;;;;;;;12.50;99.90;;;;;;5061689;28;19924;-72
2022/09/19 12:48:52;;;;;;;;;;;12.50;99.90;;;;;;5066206;28;20430;-72
2022/09/19 12:51:46;;;;;;;;;;;12.50;99.90;;;;;;5059674;28;19924;-72
2022/09/19 12:54:22;;;;;;;;;;;12.50;99.90;;;;;;5052922;28;20379;-72
2022/09/19 12:56:54;;;;;;;;;;;12.50;99.90;;;;;;5068307;28;19931;-72
2022/09/19 12:59:26;;;;;;;;;;;12.50;99.90;;;;;;5083280;28;19982;-72
2022/09/19 13:02:01;;;;;;;;;;;12.50;99.90;;;;;;5065178;28;19928;-72
2022/09/19 13:04:34;;;;;;;;;;;12.50;99.90;;;;;;5077910;28;19928;-72
2022/09/19 13:07:15;;;;;;;;;;;12.70;99.90;;;;;;5060697;28;19928;-72
2022/09/19 13:09:52;;;;;;;;;;;13.00;99.90;;;;;;5076623;28;19931;-72
2022/09/19 13:12:39;;;;;;;;;;;13.10;99.90;;;;;;5066535;28;19936;-72
2022/09/19 13:15:26;;;;;;;;;;;13.10;99.90;;;;;;5072162;28;19924;-72
2022/09/19 13:23:43;;;;;;;;;;;13.10;99.90;;;;;;5073952;28;20341;-72
2022/09/19 13:26:19;;;;;;;;;;;13.30;99.90;;;;;;5073556;28;20341;-72
2022/09/19 13:28:55;;;;;;;;;;;13.40;99.90;;;;;;5070064;28;19928;-72
2022/09/19 13:31:45;;;;;;;;;;;13.50;99.90;;;;;;5084409;28;19931;-73
2022/09/19 13:34:37;;;;;;;;;;;13.40;99.90;;;;;;5081911;28;19966;-72
2022/09/19 13:37:27;;;;;;;;;;;13.50;99.90;;;;;;5057078;28;20379;-72
2022/09/19 13:39:55;;;;;;;;;;;13.60;99.90;;;;;;5074988;28;19928;-72
2022/09/19 13:42:32;;;;;;;;;;;13.60;99.90;;;;;;5046287;28;19924;-72
2022/09/19 13:45:29;;;;;;;;;;;13.50;99.90;;;;;;5046230;28;20707;-72
2022/09/19 13:48:04;;;;;;;;;;;13.50;99.90;;;;;;5068673;28;19982;-72
2022/09/19 13:50:35;;;;;;;;;;;13.70;99.90;;;;;;5080506;28;19924;-72
2022/09/19 13:53:21;;;;;;;;;;;13.70;99.90;;;;;;5083853;28;20378;-72
2022/09/19 13:56:04;;;;;;;;;;;13.60;99.90;;;;;;5053764;28;19925;-72
2022/09/19 13:58:32;;;;;;;;;;;13.60;99.90;;;;;;5072423;28;19924;-72
2022/09/19 14:01:13;;;;;;;;;;;13.70;99.90;;;;;;5066683;28;19928;-72
2022/09/19 14:03:41;;;;;;;;;;;13.80;99.90;;;;;;5072669;28;20390;-72
2022/09/19 14:06:20;;;;;;;;;;;13.70;99.90;;;;;;5069558;28;20626;-72
2022/09/19 14:09:10;;;;;;;;;;;13.70;99.90;;;;;;5077147;28;19958;-72
2022/09/19 14:11:42;;;;;;;;;;;13.90;99.90;;;;;;5079321;28;19924;-72
2022/09/19 14:14:35;;;;;;;;;;;14.10;99.90;;;;;;5075800;28;20498;-72
2022/09/19 14:17:19;;;;;;;;;;;14.20;99.90;;;;;;5072108;28;20299;-72
2022/09/19 14:19:53;;;;;;;;;;;14.50;99.90;;;;;;5073360;28;19965;-72
2022/09/19 14:22:34;;;;;;;;;;;14.70;99.90;;;;;;5068542;28;19932;-72
2022/09/19 14:25:09;;;;;;;;;;;14.80;99.90;;;;;;5059822;28;19959;-72
2022/09/19 14:27:49;;;;;;;;;;;14.80;99.90;;;;;;5071394;28;19929;-72
2022/09/19 14:30:40;;;;;;;;;;;14.90;99.90;;;;;;5071137;28;19932;-73
2022/09/19 14:33:11;;;;;;;;;;;14.90;99.90;;;;;;5072131;28;19924;-72
2022/09/19 14:35:50;;;;;;;;;;;15.10;99.90;;;;;;5064668;28;19970;-72
2022/09/19 14:38:28;;;;;;;;;;;15.10;99.90;;;;;;5069941;28;20578;-72
2022/09/19 14:41:03;;;;;;;;;;;15.20;99.90;;;;;;5061507;28;19925;-72
2022/09/19 14:44:09;;;;;;;;;;;15.00;99.90;;;;;;5076095;28;19928;-72
2022/09/19 14:46:58;;;;;;;;;;;14.70;99.90;;;;;;5007882;28;19931;-72
2022/09/19 14:49:38;;;;;;;;;;;14.30;99.90;;;;;;5029141;28;19933;-72
2022/09/19 14:52:14;;;;;;;;;;;14.00;99.90;;;;;;5064559;28;20606;-72
2022/09/19 14:54:56;;;;;;;;;;;13.80;99.90;;;;;;5074326;28;19925;-72
2022/09/19 14:57:29;;;;;;;;;;;13.80;99.90;;;;;;5053616;28;20446;-72
2022/09/19 15:00:19;;;;;;;;;;;13.80;99.90;;;;;;5085479;28;19971;-72
2022/09/19 15:02:51;;;;;;;;;;;13.80;99.90;;;;;;5077106;28;19928;-72
2022/09/19 15:05:31;;;;;;;;;;;14.40;99.90;;;;;;5063963;28;20027;-72
2022/09/19 15:08:14;;;;;;;;;;;14.90;99.90;;;;;;5078375;28;19924;-72
2022/09/19 15:10:57;;;;;;;;;;;15.40;99.90;;;;;;5047712;28;19979;-72
2022/09/19 15:13:30;;;;;;;;;;;15.60;99.90;;;;;;5058386;28;19924;-72
2022/09/19 15:16:05;;;;;;;;;;;15.80;99.90;;;;;;5071748;28;19928;-72
2022/09/19 15:18:39;;;;;;;;;;;15.80;99.90;;;;;;5063627;28;20387;-72
2022/09/19 15:21:11;;;;;;;;;;;16.10;99.90;;;;;;5059177;28;19928;-72
2022/09/19 15:23:44;;;;;;;;;;;16.30;99.90;;;;;;5056965;28;19928;-72
2022/09/19 15:26:17;;;;;;;;;;;16.30;99.90;;;;;;5066542;28;20283;-73
2022/09/19 15:29:00;;;;;;;;;;;16.40;99.90;;;;;;5073489;28;19970;-72
2022/09/19 15:31:32;;;;;;;;;;;16.50;99.90;;;;;;5077524;28;20717;-72
2022/09/19 15:34:04;;;;;;;;;;;16.70;99.90;;;;;;5069164;28;19924;-72
2022/09/19 15:36:36;;;;;;;;;;;16.80;99.90;;;;;;5060948;28;19924;-72
2022/09/19 15:39:10;;;;;;;;;;;17.00;99.90;;;;;;5065849;28;19975;-73
2022/09/19 15:41:42;;;;;;;;;;;16.80;99.90;;;;;;5055464;28;19924;-72
2022/09/19 15:44:33;;;;;;;;;;;16.10;99.90;;;;;;5070765;28;19970;-72
2022/09/19 15:47:07;;;;;;;;;;;16.20;99.90;;;;;;5051661;28;20052;-72
2022/09/19 15:49:40;;;;;;;;;;;16.40;99.90;;;;;;5054060;28;20693;-72
2022/09/19 15:52:19;;;;;;;;;;;16.40;99.90;;;;;;5057526;28;19978;-72